Prairie Center, Illinois
Current Conditions -  °F | °C
As of 4:15 AM on Saturday 22 Nov 2014 (Local Time) from KVYS Reporting Station
Haze Haze  
Wind Chill: 30°   Ceiling: 900
Heat Index: 37°   Visibility: 5mi
Dew Point: 34°   Wind: 12mph
Humidity: 89%   Direction: 190°S
Pressure: 30.06"   Gusts: NA
Location:  41.4349°N, 88.8687°W
Report Text: KVYS 221015Z AUTO 19010KT 5SM BR OVC009 03/01 A3006 RMK AO2 T00300013
Loading
Personal Weather Stations






























Interactive Weather Map New forecast layout! Learn more

10-Day Weather Forecast

Advertisements
Track Severe Weather on mobile